sensor_id;sensor_type;location;lat;lon;timestamp;P1;durP1;ratioP1;P2;durP2;ratioP2
62933;SDS011;49038;47.600;19.242;2022-11-14T00:02:36;9.18;;;6.03;;
62933;SDS011;49038;47.600;19.242;2022-11-14T00:05:39;7.15;;;5.25;;
62933;SDS011;49038;47.600;19.242;2022-11-14T00:08:43;17.45;;;5.43;;
62933;SDS011;49038;47.600;19.242;2022-11-14T00:11:45;26.17;;;6.10;;
62933;SDS011;49038;47.600;19.242;2022-11-14T00:14:47;19.87;;;6.37;;
62933;SDS011;49038;47.600;19.242;2022-11-14T00:17:49;11.55;;;5.57;;
62933;SDS011;49038;47.600;19.242;2022-11-14T00:20:52;20.90;;;5.75;;
62933;SDS011;49038;47.600;19.242;2022-11-14T00:23:54;29.65;;;6.45;;
62933;SDS011;49038;47.600;19.242;2022-11-14T00:26:56;27.02;;;6.62;;
62933;SDS011;49038;47.600;19.242;2022-11-14T00:29:59;22.80;;;5.70;;
62933;SDS011;49038;47.600;19.242;2022-11-14T00:33:01;19.85;;;5.72;;
62933;SDS011;49038;47.600;19.242;2022-11-14T00:36:03;11.12;;;6.43;;
62933;SDS011;49038;47.600;19.242;2022-11-14T00:39:06;17.83;;;5.87;;
62933;SDS011;49038;47.600;19.242;2022-11-14T00:42:08;18.77;;;6.97;;
62933;SDS011;49038;47.600;19.242;2022-11-14T00:45:10;12.55;;;5.53;;
62933;SDS011;49038;47.600;19.242;2022-11-14T00:48:13;17.73;;;6.60;;
62933;SDS011;49038;47.600;19.242;2022-11-14T00:51:15;23.25;;;5.53;;
62933;SDS011;49038;47.600;19.242;2022-11-14T00:54:18;26.00;;;6.80;;
62933;SDS011;49038;47.600;19.242;2022-11-14T00:57:20;16.00;;;6.22;;
62933;SDS011;49038;47.600;19.242;2022-11-14T01:00:22;16.62;;;6.20;;
62933;SDS011;49038;47.600;19.242;2022-11-14T01:03:24;13.20;;;5.78;;
62933;SDS011;49038;47.600;19.242;2022-11-14T01:06:27;10.10;;;6.12;;
62933;SDS011;49038;47.600;19.242;2022-11-14T01:09:29;20.77;;;5.65;;
62933;SDS011;49038;47.600;19.242;2022-11-14T01:12:32;29.25;;;5.90;;
62933;SDS011;49038;47.600;19.242;2022-11-14T01:15:38;9.05;;;5.12;;
62933;SDS011;49038;47.600;19.242;2022-11-14T01:18:44;16.58;;;6.75;;
62933;SDS011;49038;47.600;19.242;2022-11-14T01:21:47;8.73;;;5.32;;
62933;SDS011;49038;47.600;19.242;2022-11-14T01:24:49;26.98;;;6.70;;
62933;SDS011;49038;47.600;19.242;2022-11-14T01:27:51;11.80;;;5.18;;
62933;SDS011;49038;47.600;19.242;2022-11-14T01:30:53;18.85;;;6.07;;
62933;SDS011;49038;47.600;19.242;2022-11-14T01:33:55;27.73;;;5.12;;
62933;SDS011;49038;47.600;19.242;2022-11-14T01:36:58;7.30;;;4.80;;
62933;SDS011;49038;47.600;19.242;2022-11-14T01:40:00;25.77;;;5.57;;
62933;SDS011;49038;47.600;19.242;2022-11-14T01:46:24;14.15;;;5.50;;
62933;SDS011;49038;47.600;19.242;2022-11-14T01:49:35;14.80;;;6.15;;
62933;SDS011;49038;47.600;19.242;2022-11-14T01:52:39;13.73;;;5.12;;
62933;SDS011;49038;47.600;19.242;2022-11-14T01:55:41;13.02;;;4.53;;
62933;SDS011;49038;47.600;19.242;2022-11-14T01:58:45;38.08;;;5.82;;
62933;SDS011;49038;47.600;19.242;2022-11-14T02:01:51;13.45;;;5.25;;
62933;SDS011;49038;47.600;19.242;2022-11-14T02:05:08;20.73;;;5.82;;
62933;SDS011;49038;47.600;19.242;2022-11-14T02:08:12;8.45;;;4.95;;
62933;SDS011;49038;47.600;19.242;2022-11-14T02:11:15;18.85;;;4.72;;
62933;SDS011;49038;47.600;19.242;2022-11-14T02:14:17;15.95;;;5.37;;
62933;SDS011;49038;47.600;19.242;2022-11-14T02:17:19;5.50;;;4.20;;
62933;SDS011;49038;47.600;19.242;2022-11-14T02:20:35;47.72;;;6.22;;
62933;SDS011;49038;47.600;19.242;2022-11-14T02:23:43;11.50;;;4.93;;
62933;SDS011;49038;47.600;19.242;2022-11-14T02:26:46;27.15;;;5.25;;
62933;SDS011;49038;47.600;19.242;2022-11-14T02:29:48;9.48;;;4.82;;
62933;SDS011;49038;47.600;19.242;2022-11-14T02:32:50;7.68;;;4.10;;
62933;SDS011;49038;47.600;19.242;2022-11-14T02:36:12;21.08;;;4.35;;
62933;SDS011;49038;47.600;19.242;2022-11-14T02:39:14;8.18;;;4.78;;
62933;SDS011;49038;47.600;19.242;2022-11-14T02:42:16;23.15;;;4.97;;
62933;SDS011;49038;47.600;19.242;2022-11-14T02:45:19;7.15;;;4.80;;
62933;SDS011;49038;47.600;19.242;2022-11-14T02:48:21;35.60;;;5.15;;
62933;SDS011;49038;47.600;19.242;2022-11-14T02:51:24;8.20;;;4.43;;
62933;SDS011;49038;47.600;19.242;2022-11-14T02:54:26;37.13;;;5.35;;
62933;SDS011;49038;47.600;19.242;2022-11-14T02:57:28;14.85;;;3.70;;
62933;SDS011;49038;47.600;19.242;2022-11-14T03:00:30;14.38;;;3.95;;
62933;SDS011;49038;47.600;19.242;2022-11-14T03:03:32;10.95;;;4.47;;
62933;SDS011;49038;47.600;19.242;2022-11-14T03:06:34;21.83;;;4.40;;
62933;SDS011;49038;47.600;19.242;2022-11-14T03:09:37;7.25;;;3.50;;
62933;SDS011;49038;47.600;19.242;2022-11-14T03:12:39;23.23;;;4.30;;
62933;SDS011;49038;47.600;19.242;2022-11-14T03:15:41;7.28;;;3.67;;
62933;SDS011;49038;47.600;19.242;2022-11-14T03:18:43;14.63;;;3.28;;
62933;SDS011;49038;47.600;19.242;2022-11-14T03:21:46;14.05;;;3.83;;
62933;SDS011;49038;47.600;19.242;2022-11-14T03:24:48;3.42;;;2.62;;
62933;SDS011;49038;47.600;19.242;2022-11-14T03:27:50;6.03;;;3.85;;
62933;SDS011;49038;47.600;19.242;2022-11-14T03:30:52;27.60;;;4.65;;
62933;SDS011;49038;47.600;19.242;2022-11-14T03:33:54;4.55;;;3.20;;
62933;SDS011;49038;47.600;19.242;2022-11-14T03:36:57;19.05;;;4.25;;
62933;SDS011;49038;47.600;19.242;2022-11-14T03:39:59;4.30;;;3.22;;
62933;SDS011;49038;47.600;19.242;2022-11-14T03:43:01;4.45;;;3.72;;
62933;SDS011;49038;47.600;19.242;2022-11-14T03:46:03;11.55;;;3.22;;
62933;SDS011;49038;47.600;19.242;2022-11-14T03:49:06;12.10;;;3.83;;
62933;SDS011;49038;47.600;19.242;2022-11-14T03:52:08;5.55;;;3.10;;
62933;SDS011;49038;47.600;19.242;2022-11-14T03:55:10;10.25;;;3.15;;
62933;SDS011;49038;47.600;19.242;2022-11-14T03:58:13;21.37;;;3.58;;
62933;SDS011;49038;47.600;19.242;2022-11-14T04:01:15;4.07;;;3.03;;
62933;SDS011;49038;47.600;19.242;2022-11-14T04:04:17;9.05;;;3.80;;
62933;SDS011;49038;47.600;19.242;2022-11-14T04:07:19;3.70;;;3.20;;
62933;SDS011;49038;47.600;19.242;2022-11-14T04:10:21;4.97;;;4.30;;
62933;SDS011;49038;47.600;19.242;2022-11-14T04:13:24;13.80;;;3.80;;
62933;SDS011;49038;47.600;19.242;2022-11-14T04:16:26;8.07;;;4.35;;
62933;SDS011;49038;47.600;19.242;2022-11-14T04:19:28;22.37;;;4.32;;
62933;SDS011;49038;47.600;19.242;2022-11-14T04:22:30;13.32;;;3.78;;
62933;SDS011;49038;47.600;19.242;2022-11-14T04:25:32;37.38;;;3.65;;
62933;SDS011;49038;47.600;19.242;2022-11-14T04:28:35;19.50;;;3.72;;
62933;SDS011;49038;47.600;19.242;2022-11-14T04:31:37;7.07;;;3.92;;
62933;SDS011;49038;47.600;19.242;2022-11-14T04:34:39;27.45;;;4.65;;
62933;SDS011;49038;47.600;19.242;2022-11-14T04:37:41;10.77;;;5.55;;
62933;SDS011;49038;47.600;19.242;2022-11-14T04:40:50;12.25;;;3.75;;
62933;SDS011;49038;47.600;19.242;2022-11-14T04:43:52;13.70;;;4.57;;
62933;SDS011;49038;47.600;19.242;2022-11-14T04:46:55;13.60;;;3.53;;
62933;SDS011;49038;47.600;19.242;2022-11-14T04:49:58;10.65;;;3.78;;
62933;SDS011;49038;47.600;19.242;2022-11-14T04:53:00;29.80;;;4.32;;
62933;SDS011;49038;47.600;19.242;2022-11-14T04:56:02;8.57;;;3.90;;
62933;SDS011;49038;47.600;19.242;2022-11-14T04:59:04;4.30;;;3.10;;
62933;SDS011;49038;47.600;19.242;2022-11-14T05:02:07;5.82;;;3.62;;
62933;SDS011;49038;47.600;19.242;2022-11-14T05:05:09;7.30;;;3.50;;
62933;SDS011;49038;47.600;19.242;2022-11-14T05:08:11;4.50;;;3.25;;
62933;SDS011;49038;47.600;19.242;2022-11-14T05:11:14;4.20;;;3.20;;
62933;SDS011;49038;47.600;19.242;2022-11-14T05:14:17;21.58;;;4.00;;
62933;SDS011;49038;47.600;19.242;2022-11-14T05:17:19;15.32;;;3.30;;
62933;SDS011;49038;47.600;19.242;2022-11-14T05:20:21;4.07;;;3.22;;
62933;SDS011;49038;47.600;19.242;2022-11-14T05:23:23;6.55;;;3.50;;
62933;SDS011;49038;47.600;19.242;2022-11-14T05:26:26;3.33;;;2.47;;
62933;SDS011;49038;47.600;19.242;2022-11-14T05:29:28;3.78;;;3.22;;
62933;SDS011;49038;47.600;19.242;2022-11-14T05:32:30;15.93;;;4.30;;
62933;SDS011;49038;47.600;19.242;2022-11-14T05:35:32;5.93;;;3.20;;
62933;SDS011;49038;47.600;19.242;2022-11-14T05:38:35;4.97;;;3.75;;
62933;SDS011;49038;47.600;19.242;2022-11-14T05:41:37;5.87;;;3.33;;
62933;SDS011;49038;47.600;19.242;2022-11-14T05:44:39;5.03;;;3.47;;
62933;SDS011;49038;47.600;19.242;2022-11-14T05:47:41;9.43;;;4.40;;
62933;SDS011;49038;47.600;19.242;2022-11-14T05:50:43;14.23;;;4.50;;
62933;SDS011;49038;47.600;19.242;2022-11-14T05:53:45;21.12;;;4.53;;
62933;SDS011;49038;47.600;19.242;2022-11-14T05:56:48;6.95;;;4.25;;
62933;SDS011;49038;47.600;19.242;2022-11-14T05:59:50;11.07;;;5.72;;
62933;SDS011;49038;47.600;19.242;2022-11-14T06:02:53;7.18;;;5.47;;
62933;SDS011;49038;47.600;19.242;2022-11-14T06:05:55;9.18;;;6.72;;
62933;SDS011;49038;47.600;19.242;2022-11-14T06:08:57;11.12;;;6.18;;
62933;SDS011;49038;47.600;19.242;2022-11-14T06:12:00;14.98;;;8.85;;
62933;SDS011;49038;47.600;19.242;2022-11-14T06:15:06;12.45;;;8.25;;
62933;SDS011;49038;47.600;19.242;2022-11-14T06:18:09;14.55;;;8.38;;
62933;SDS011;49038;47.600;19.242;2022-11-14T06:21:12;15.93;;;8.20;;
62933;SDS011;49038;47.600;19.242;2022-11-14T06:24:16;18.02;;;9.85;;
62933;SDS011;49038;47.600;19.242;2022-11-14T06:27:18;15.57;;;8.32;;
62933;SDS011;49038;47.600;19.242;2022-11-14T06:30:20;13.10;;;7.30;;
62933;SDS011;49038;47.600;19.242;2022-11-14T06:33:22;10.48;;;5.10;;
62933;SDS011;49038;47.600;19.242;2022-11-14T06:36:24;9.20;;;5.62;;
62933;SDS011;49038;47.600;19.242;2022-11-14T06:39:27;18.67;;;9.88;;
62933;SDS011;49038;47.600;19.242;2022-11-14T06:42:29;24.70;;;12.60;;
62933;SDS011;49038;47.600;19.242;2022-11-14T06:45:31;44.25;;;18.02;;
62933;SDS011;49038;47.600;19.242;2022-11-14T06:48:33;45.92;;;16.87;;
62933;SDS011;49038;47.600;19.242;2022-11-14T06:51:36;20.17;;;10.43;;
62933;SDS011;49038;47.600;19.242;2022-11-14T06:54:38;5.90;;;4.60;;
62933;SDS011;49038;47.600;19.242;2022-11-14T06:57:40;12.52;;;5.68;;
62933;SDS011;49038;47.600;19.242;2022-11-14T07:00:43;9.88;;;5.47;;
62933;SDS011;49038;47.600;19.242;2022-11-14T07:03:45;12.25;;;6.57;;
62933;SDS011;49038;47.600;19.242;2022-11-14T07:06:47;5.80;;;4.37;;
62933;SDS011;49038;47.600;19.242;2022-11-14T07:09:49;5.78;;;3.55;;
62933;SDS011;49038;47.600;19.242;2022-11-14T07:12:52;6.37;;;4.05;;
62933;SDS011;49038;47.600;19.242;2022-11-14T07:15:54;4.35;;;3.10;;
62933;SDS011;49038;47.600;19.242;2022-11-14T07:18:57;6.40;;;4.75;;
62933;SDS011;49038;47.600;19.242;2022-11-14T07:21:59;8.10;;;6.18;;
62933;SDS011;49038;47.600;19.242;2022-11-14T07:25:02;8.13;;;5.68;;
62933;SDS011;49038;47.600;19.242;2022-11-14T07:28:04;7.25;;;5.03;;
62933;SDS011;49038;47.600;19.242;2022-11-14T07:31:07;9.45;;;5.72;;
62933;SDS011;49038;47.600;19.242;2022-11-14T07:34:15;12.82;;;5.35;;
62933;SDS011;49038;47.600;19.242;2022-11-14T07:37:17;11.98;;;6.75;;
62933;SDS011;49038;47.600;19.242;2022-11-14T07:40:20;10.70;;;7.07;;
62933;SDS011;49038;47.600;19.242;2022-11-14T07:43:22;11.73;;;7.12;;
62933;SDS011;49038;47.600;19.242;2022-11-14T07:46:24;8.98;;;5.32;;
62933;SDS011;49038;47.600;19.242;2022-11-14T07:49:26;15.38;;;6.87;;
62933;SDS011;49038;47.600;19.242;2022-11-14T07:52:29;11.50;;;6.30;;
62933;SDS011;49038;47.600;19.242;2022-11-14T07:55:34;13.20;;;6.70;;
62933;SDS011;49038;47.600;19.242;2022-11-14T07:58:37;13.10;;;6.45;;
62933;SDS011;49038;47.600;19.242;2022-11-14T08:01:40;16.27;;;6.93;;
62933;SDS011;49038;47.600;19.242;2022-11-14T08:04:42;12.18;;;6.37;;
62933;SDS011;49038;47.600;19.242;2022-11-14T08:07:44;12.07;;;6.45;;
62933;SDS011;49038;47.600;19.242;2022-11-14T08:10:46;9.50;;;6.28;;
62933;SDS011;49038;47.600;19.242;2022-11-14T08:13:49;11.55;;;6.15;;
62933;SDS011;49038;47.600;19.242;2022-11-14T08:16:51;10.52;;;5.47;;
62933;SDS011;49038;47.600;19.242;2022-11-14T08:19:53;13.55;;;6.05;;
62933;SDS011;49038;47.600;19.242;2022-11-14T08:23:02;11.30;;;6.62;;
62933;SDS011;49038;47.600;19.242;2022-11-14T08:26:06;11.48;;;6.28;;
62933;SDS011;49038;47.600;19.242;2022-11-14T08:29:08;11.27;;;5.75;;
62933;SDS011;49038;47.600;19.242;2022-11-14T08:32:10;10.68;;;6.97;;
62933;SDS011;49038;47.600;19.242;2022-11-14T08:35:12;14.38;;;6.07;;
62933;SDS011;49038;47.600;19.242;2022-11-14T08:38:15;18.75;;;9.73;;
62933;SDS011;49038;47.600;19.242;2022-11-14T08:41:17;20.83;;;9.77;;
62933;SDS011;49038;47.600;19.242;2022-11-14T08:44:19;15.00;;;8.05;;
62933;SDS011;49038;47.600;19.242;2022-11-14T08:47:21;15.25;;;7.22;;
62933;SDS011;49038;47.600;19.242;2022-11-14T08:50:23;13.95;;;6.68;;
62933;SDS011;49038;47.600;19.242;2022-11-14T08:53:26;11.93;;;7.03;;
62933;SDS011;49038;47.600;19.242;2022-11-14T08:56:28;9.32;;;6.18;;
62933;SDS011;49038;47.600;19.242;2022-11-14T08:59:30;11.48;;;6.28;;
62933;SDS011;49038;47.600;19.242;2022-11-14T09:02:33;9.70;;;5.45;;
62933;SDS011;49038;47.600;19.242;2022-11-14T09:05:35;9.13;;;6.12;;
62933;SDS011;49038;47.600;19.242;2022-11-14T09:08:37;11.23;;;5.85;;
62933;SDS011;49038;47.600;19.242;2022-11-14T09:11:39;12.55;;;6.68;;
62933;SDS011;49038;47.600;19.242;2022-11-14T09:14:42;15.80;;;7.43;;
62933;SDS011;49038;47.600;19.242;2022-11-14T09:17:44;12.40;;;6.60;;
62933;SDS011;49038;47.600;19.242;2022-11-14T09:20:46;10.38;;;6.90;;
62933;SDS011;49038;47.600;19.242;2022-11-14T09:23:48;15.82;;;6.20;;
62933;SDS011;49038;47.600;19.242;2022-11-14T09:26:50;9.47;;;5.83;;
62933;SDS011;49038;47.600;19.242;2022-11-14T09:29:57;12.70;;;7.00;;
62933;SDS011;49038;47.600;19.242;2022-11-14T09:33:00;10.77;;;6.62;;
62933;SDS011;49038;47.600;19.242;2022-11-14T09:36:11;14.43;;;6.18;;
62933;SDS011;49038;47.600;19.242;2022-11-14T09:39:18;9.00;;;5.75;;
62933;SDS011;49038;47.600;19.242;2022-11-14T09:45:41;10.20;;;5.97;;
62933;SDS011;49038;47.600;19.242;2022-11-14T09:48:48;11.50;;;6.70;;
62933;SDS011;49038;47.600;19.242;2022-11-14T09:51:52;11.05;;;6.15;;
62933;SDS011;49038;47.600;19.242;2022-11-14T09:58:17;11.80;;;6.50;;
62933;SDS011;49038;47.600;19.242;2022-11-14T10:11:31;9.82;;;5.85;;
62933;SDS011;49038;47.600;19.242;2022-11-14T10:20:52;11.50;;;6.37;;
62933;SDS011;49038;47.600;19.242;2022-11-14T10:27:23;10.00;;;5.70;;
62933;SDS011;49038;47.600;19.242;2022-11-14T10:30:30;11.80;;;5.78;;
62933;SDS011;49038;47.600;19.242;2022-11-14T10:33:55;14.20;;;6.25;;
62933;SDS011;49038;47.600;19.242;2022-11-14T10:37:21;10.73;;;6.05;;
62933;SDS011;49038;47.600;19.242;2022-11-14T10:40:29;10.85;;;5.62;;
62933;SDS011;49038;47.600;19.242;2022-11-14T10:46:50;10.02;;;6.03;;
62933;SDS011;49038;47.600;19.242;2022-11-14T10:49:55;12.57;;;6.37;;
62933;SDS011;49038;47.600;19.242;2022-11-14T10:53:00;9.65;;;5.65;;
62933;SDS011;49038;47.600;19.242;2022-11-14T10:56:03;11.70;;;6.25;;
62933;SDS011;49038;47.600;19.242;2022-11-14T10:59:07;9.65;;;5.35;;
62933;SDS011;49038;47.600;19.242;2022-11-14T11:02:10;10.68;;;6.10;;
62933;SDS011;49038;47.600;19.242;2022-11-14T11:05:16;10.43;;;5.50;;
62933;SDS011;49038;47.600;19.242;2022-11-14T11:08:20;10.07;;;5.70;;
62933;SDS011;49038;47.600;19.242;2022-11-14T11:11:54;9.10;;;5.25;;
62933;SDS011;49038;47.600;19.242;2022-11-14T11:15:21;11.45;;;6.03;;
62933;SDS011;49038;47.600;19.242;2022-11-14T11:18:32;9.93;;;4.60;;
62933;SDS011;49038;47.600;19.242;2022-11-14T11:21:45;8.90;;;5.10;;
62933;SDS011;49038;47.600;19.242;2022-11-14T11:24:49;14.50;;;5.78;;
62933;SDS011;49038;47.600;19.242;2022-11-14T11:31:07;7.35;;;4.45;;
62933;SDS011;49038;47.600;19.242;2022-11-14T11:34:10;8.10;;;5.25;;
62933;SDS011;49038;47.600;19.242;2022-11-14T11:37:23;11.32;;;5.72;;
62933;SDS011;49038;47.600;19.242;2022-11-14T11:40:27;10.60;;;5.00;;
62933;SDS011;49038;47.600;19.242;2022-11-14T11:46:51;8.55;;;4.20;;
62933;SDS011;49038;47.600;19.242;2022-11-14T11:49:55;8.15;;;4.43;;
62933;SDS011;49038;47.600;19.242;2022-11-14T11:53:11;8.13;;;4.93;;
62933;SDS011;49038;47.600;19.242;2022-11-14T11:56:18;7.55;;;4.32;;
62933;SDS011;49038;47.600;19.242;2022-11-14T11:59:32;7.47;;;4.32;;
62933;SDS011;49038;47.600;19.242;2022-11-14T12:02:38;8.35;;;3.97;;
62933;SDS011;49038;47.600;19.242;2022-11-14T12:05:54;5.28;;;3.50;;
62933;SDS011;49038;47.600;19.242;2022-11-14T12:09:14;6.05;;;3.78;;
62933;SDS011;49038;47.600;19.242;2022-11-14T12:25:47;6.10;;;3.83;;
62933;SDS011;49038;47.600;19.242;2022-11-14T12:35:59;8.45;;;3.90;;
62933;SDS011;49038;47.600;19.242;2022-11-14T12:39:04;5.07;;;3.03;;
62933;SDS011;49038;47.600;19.242;2022-11-14T12:42:06;6.55;;;3.97;;
62933;SDS011;49038;47.600;19.242;2022-11-14T12:48:42;11.45;;;3.92;;
62933;SDS011;49038;47.600;19.242;2022-11-14T12:54:47;9.57;;;4.03;;
62933;SDS011;49038;47.600;19.242;2022-11-14T13:08:25;6.57;;;3.62;;
62933;SDS011;49038;47.600;19.242;2022-11-14T13:25:17;7.80;;;4.40;;
62933;SDS011;49038;47.600;19.242;2022-11-14T13:31:42;7.43;;;3.80;;
62933;SDS011;49038;47.600;19.242;2022-11-14T13:34:53;6.15;;;3.58;;
62933;SDS011;49038;47.600;19.242;2022-11-14T13:51:54;5.53;;;3.10;;
62933;SDS011;49038;47.600;19.242;2022-11-14T13:54:56;8.02;;;3.78;;
62933;SDS011;49038;47.600;19.242;2022-11-14T14:21:48;7.35;;;3.75;;
62933;SDS011;49038;47.600;19.242;2022-11-14T14:31:54;9.80;;;4.53;;
62933;SDS011;49038;47.600;19.242;2022-11-14T14:35:20;6.87;;;3.83;;
62933;SDS011;49038;47.600;19.242;2022-11-14T14:38:24;7.15;;;4.35;;
62933;SDS011;49038;47.600;19.242;2022-11-14T14:41:29;6.85;;;4.32;;
62933;SDS011;49038;47.600;19.242;2022-11-14T14:44:35;9.07;;;5.18;;
62933;SDS011;49038;47.600;19.242;2022-11-14T14:47:39;9.18;;;4.32;;
62933;SDS011;49038;47.600;19.242;2022-11-14T14:50:50;9.88;;;4.37;;
62933;SDS011;49038;47.600;19.242;2022-11-14T14:53:54;10.73;;;5.18;;
62933;SDS011;49038;47.600;19.242;2022-11-14T14:56:57;11.25;;;6.45;;
62933;SDS011;49038;47.600;19.242;2022-11-14T15:00:15;8.18;;;4.53;;
62933;SDS011;49038;47.600;19.242;2022-11-14T15:03:18;9.52;;;5.47;;
62933;SDS011;49038;47.600;19.242;2022-11-14T15:06:28;7.65;;;4.85;;
62933;SDS011;49038;47.600;19.242;2022-11-14T15:09:36;11.23;;;6.55;;
62933;SDS011;49038;47.600;19.242;2022-11-14T15:12:38;9.32;;;4.72;;
62933;SDS011;49038;47.600;19.242;2022-11-14T15:15:41;8.75;;;4.80;;
62933;SDS011;49038;47.600;19.242;2022-11-14T15:18:43;9.00;;;5.55;;
62933;SDS011;49038;47.600;19.242;2022-11-14T15:21:55;7.55;;;5.05;;
62933;SDS011;49038;47.600;19.242;2022-11-14T15:28:14;11.35;;;5.53;;
62933;SDS011;49038;47.600;19.242;2022-11-14T15:31:19;8.52;;;4.65;;
62933;SDS011;49038;47.600;19.242;2022-11-14T15:34:29;9.85;;;5.30;;
62933;SDS011;49038;47.600;19.242;2022-11-14T15:37:33;6.55;;;4.22;;
62933;SDS011;49038;47.600;19.242;2022-11-14T15:40:36;11.07;;;5.70;;
62933;SDS011;49038;47.600;19.242;2022-11-14T15:46:45;8.63;;;5.12;;
62933;SDS011;49038;47.600;19.242;2022-11-14T15:49:58;10.20;;;5.25;;
62933;SDS011;49038;47.600;19.242;2022-11-14T15:53:04;12.07;;;6.43;;
62933;SDS011;49038;47.600;19.242;2022-11-14T15:56:11;24.30;;;9.88;;
62933;SDS011;49038;47.600;19.242;2022-11-14T15:59:14;23.17;;;9.90;;
62933;SDS011;49038;47.600;19.242;2022-11-14T16:02:17;15.48;;;8.82;;
62933;SDS011;49038;47.600;19.242;2022-11-14T16:05:28;23.80;;;11.32;;
62933;SDS011;49038;47.600;19.242;2022-11-14T16:08:31;26.80;;;14.15;;
62933;SDS011;49038;47.600;19.242;2022-11-14T16:11:34;33.63;;;17.92;;
62933;SDS011;49038;47.600;19.242;2022-11-14T16:14:36;23.85;;;15.23;;
62933;SDS011;49038;47.600;19.242;2022-11-14T16:17:40;31.00;;;16.62;;
62933;SDS011;49038;47.600;19.242;2022-11-14T16:20:43;29.85;;;15.50;;
62933;SDS011;49038;47.600;19.242;2022-11-14T16:23:47;29.30;;;14.93;;
62933;SDS011;49038;47.600;19.242;2022-11-14T16:26:49;29.55;;;14.90;;
62933;SDS011;49038;47.600;19.242;2022-11-14T16:29:52;94.07;;;39.17;;
62933;SDS011;49038;47.600;19.242;2022-11-14T16:32:54;83.30;;;37.75;;
62933;SDS011;49038;47.600;19.242;2022-11-14T16:35:57;43.87;;;21.62;;
62933;SDS011;49038;47.600;19.242;2022-11-14T16:39:00;42.08;;;19.45;;
62933;SDS011;49038;47.600;19.242;2022-11-14T16:42:03;82.78;;;31.05;;
62933;SDS011;49038;47.600;19.242;2022-11-14T16:45:07;81.32;;;34.28;;
62933;SDS011;49038;47.600;19.242;2022-11-14T16:48:10;51.90;;;22.60;;
62933;SDS011;49038;47.600;19.242;2022-11-14T16:51:12;38.28;;;15.32;;
62933;SDS011;49038;47.600;19.242;2022-11-14T16:54:34;43.28;;;20.48;;
62933;SDS011;49038;47.600;19.242;2022-11-14T16:57:37;45.97;;;20.00;;
62933;SDS011;49038;47.600;19.242;2022-11-14T17:00:41;32.78;;;16.80;;
62933;SDS011;49038;47.600;19.242;2022-11-14T17:03:44;22.00;;;14.52;;
62933;SDS011;49038;47.600;19.242;2022-11-14T17:06:46;27.23;;;15.70;;
62933;SDS011;49038;47.600;19.242;2022-11-14T17:09:48;28.20;;;14.60;;
62933;SDS011;49038;47.600;19.242;2022-11-14T17:12:51;29.55;;;14.20;;
62933;SDS011;49038;47.600;19.242;2022-11-14T17:15:53;31.73;;;17.08;;
62933;SDS011;49038;47.600;19.242;2022-11-14T17:18:55;59.63;;;23.55;;
62933;SDS011;49038;47.600;19.242;2022-11-14T17:21:58;64.85;;;24.60;;
62933;SDS011;49038;47.600;19.242;2022-11-14T17:25:00;24.08;;;13.85;;
62933;SDS011;49038;47.600;19.242;2022-11-14T17:28:02;25.88;;;13.73;;
62933;SDS011;49038;47.600;19.242;2022-11-14T17:31:06;35.35;;;18.40;;
62933;SDS011;49038;47.600;19.242;2022-11-14T17:34:09;180.35;;;58.47;;
62933;SDS011;49038;47.600;19.242;2022-11-14T17:37:11;44.65;;;20.77;;
62933;SDS011;49038;47.600;19.242;2022-11-14T17:40:14;141.23;;;46.30;;
62933;SDS011;49038;47.600;19.242;2022-11-14T17:43:16;135.02;;;51.42;;
62933;SDS011;49038;47.600;19.242;2022-11-14T17:46:19;40.95;;;18.35;;
62933;SDS011;49038;47.600;19.242;2022-11-14T17:49:21;41.67;;;18.58;;
62933;SDS011;49038;47.600;19.242;2022-11-14T17:52:23;46.15;;;22.17;;
62933;SDS011;49038;47.600;19.242;2022-11-14T17:55:25;40.72;;;18.70;;
62933;SDS011;49038;47.600;19.242;2022-11-14T17:58:28;132.68;;;45.53;;
62933;SDS011;49038;47.600;19.242;2022-11-14T18:01:33;131.48;;;47.50;;
62933;SDS011;49038;47.600;19.242;2022-11-14T18:04:35;48.30;;;19.92;;
62933;SDS011;49038;47.600;19.242;2022-11-14T18:07:38;42.62;;;19.12;;
62933;SDS011;49038;47.600;19.242;2022-11-14T18:10:40;42.70;;;21.10;;
62933;SDS011;49038;47.600;19.242;2022-11-14T18:13:43;33.03;;;17.10;;
62933;SDS011;49038;47.600;19.242;2022-11-14T18:16:45;77.03;;;34.42;;
62933;SDS011;49038;47.600;19.242;2022-11-14T18:20:07;27.37;;;16.35;;
62933;SDS011;49038;47.600;19.242;2022-11-14T18:23:10;42.75;;;20.92;;
62933;SDS011;49038;47.600;19.242;2022-11-14T18:26:13;42.30;;;21.25;;
62933;SDS011;49038;47.600;19.242;2022-11-14T18:29:17;37.50;;;18.98;;
62933;SDS011;49038;47.600;19.242;2022-11-14T18:32:19;26.00;;;14.23;;
62933;SDS011;49038;47.600;19.242;2022-11-14T18:35:22;30.98;;;13.75;;
62933;SDS011;49038;47.600;19.242;2022-11-14T18:38:24;26.50;;;14.20;;
62933;SDS011;49038;47.600;19.242;2022-11-14T18:41:27;28.10;;;13.65;;
62933;SDS011;49038;47.600;19.242;2022-11-14T18:44:29;31.73;;;14.02;;
62933;SDS011;49038;47.600;19.242;2022-11-14T18:47:32;33.13;;;14.43;;
62933;SDS011;49038;47.600;19.242;2022-11-14T18:50:34;24.55;;;13.20;;
62933;SDS011;49038;47.600;19.242;2022-11-14T18:53:36;30.83;;;12.50;;
62933;SDS011;49038;47.600;19.242;2022-11-14T18:56:39;27.98;;;14.32;;
62933;SDS011;49038;47.600;19.242;2022-11-14T18:59:41;28.75;;;9.45;;
62933;SDS011;49038;47.600;19.242;2022-11-14T19:02:48;19.62;;;9.93;;
62933;SDS011;49038;47.600;19.242;2022-11-14T19:05:53;12.43;;;8.23;;
62933;SDS011;49038;47.600;19.242;2022-11-14T19:08:56;11.52;;;6.78;;
62933;SDS011;49038;47.600;19.242;2022-11-14T19:12:08;52.42;;;12.85;;
62933;SDS011;49038;47.600;19.242;2022-11-14T19:15:19;18.27;;;9.98;;
62933;SDS011;49038;47.600;19.242;2022-11-14T19:18:22;18.73;;;10.13;;
62933;SDS011;49038;47.600;19.242;2022-11-14T19:21:25;24.27;;;9.10;;
62933;SDS011;49038;47.600;19.242;2022-11-14T19:24:27;17.27;;;9.77;;
62933;SDS011;49038;47.600;19.242;2022-11-14T19:27:30;29.55;;;12.77;;
62933;SDS011;49038;47.600;19.242;2022-11-14T19:30:32;24.35;;;10.38;;
62933;SDS011;49038;47.600;19.242;2022-11-14T19:33:37;15.93;;;9.10;;
62933;SDS011;49038;47.600;19.242;2022-11-14T19:36:40;37.90;;;9.60;;
62933;SDS011;49038;47.600;19.242;2022-11-14T19:40:03;70.43;;;28.85;;
62933;SDS011;49038;47.600;19.242;2022-11-14T19:43:09;24.95;;;12.80;;
62933;SDS011;49038;47.600;19.242;2022-11-14T19:46:12;43.55;;;10.13;;
62933;SDS011;49038;47.600;19.242;2022-11-14T19:49:17;15.27;;;9.07;;
62933;SDS011;49038;47.600;19.242;2022-11-14T19:52:20;12.57;;;8.70;;
62933;SDS011;49038;47.600;19.242;2022-11-14T19:55:23;21.30;;;10.68;;
62933;SDS011;49038;47.600;19.242;2022-11-14T19:58:25;20.40;;;10.45;;
62933;SDS011;49038;47.600;19.242;2022-11-14T20:01:28;17.70;;;9.48;;
62933;SDS011;49038;47.600;19.242;2022-11-14T20:04:31;16.30;;;8.63;;
62933;SDS011;49038;47.600;19.242;2022-11-14T20:07:38;21.30;;;8.93;;
62933;SDS011;49038;47.600;19.242;2022-11-14T20:10:41;22.55;;;11.50;;
62933;SDS011;49038;47.600;19.242;2022-11-14T20:13:49;20.83;;;10.45;;
62933;SDS011;49038;47.600;19.242;2022-11-14T20:16:52;19.87;;;8.77;;
62933;SDS011;49038;47.600;19.242;2022-11-14T20:19:55;28.65;;;8.25;;
62933;SDS011;49038;47.600;19.242;2022-11-14T20:22:57;14.23;;;7.97;;
62933;SDS011;49038;47.600;19.242;2022-11-14T20:26:01;17.08;;;8.57;;